Time;durP1;ratioP1;P1;durP2;ratioP2;P2;SDS_P1;SDS_P2;PMS_P1;PMS_P2;Temp;Humidity;BMP_temperature;BMP_pressure;BME280_temperature;BME280_humidity;BME280_pressure;Samples;Min_cycle;Max_cycle;Signal;HPM_P1;HPM_P2
2020/12/11 00:00:52;;;;;;;22.75;14.40;;;;;;;;;;5091609;28;20047;-71
2020/12/11 00:03:18;;;;;;;18.25;12.90;;;;;;;;;;5094098;28;20069;-72
2020/12/11 00:05:44;;;;;;;16.85;12.82;;;;;;;;;;5093840;28;20021;-74
2020/12/11 00:08:10;;;;;;;18.75;13.57;;;;;;;;;;5092518;28;20112;-72
2020/12/11 00:10:36;;;;;;;17.42;13.38;;;;;;;;;;5092629;28;20016;-72
2020/12/11 00:13:02;;;;;;;15.82;12.52;;;;;;;;;;5092749;28;20020;-71
2020/12/11 00:15:29;;;;;;;17.55;12.93;;;;;;;;;;5093236;28;20020;-72
2020/12/11 00:17:55;;;;;;;16.42;11.93;;;;;;;;;;5093440;28;20028;-71
2020/12/11 00:20:21;;;;;;;19.35;13.77;;;;;;;;;;5092689;28;20012;-72
2020/12/11 00:22:47;;;;;;;18.70;13.95;;;;;;;;;;5093598;28;20042;-72
2020/12/11 00:25:13;;;;;;;16.67;12.55;;;;;;;;;;5092271;28;20016;-72
2020/12/11 00:27:40;;;;;;;20.45;12.90;;;;;;;;;;5092977;28;20361;-73
2020/12/11 00:30:06;;;;;;;15.90;12.43;;;;;;;;;;5096460;28;20123;-72
2020/12/11 00:32:35;;;;;;;20.08;13.70;;;;;;;;;;5097435;28;20110;-71
2020/12/11 00:35:01;;;;;;;15.70;11.85;;;;;;;;;;5097906;28;20395;-71
2020/12/11 00:37:27;;;;;;;18.05;12.77;;;;;;;;;;5097868;28;20038;-72
2020/12/11 00:39:53;;;;;;;18.17;13.10;;;;;;;;;;5097238;28;20061;-72
2020/12/11 00:42:20;;;;;;;16.05;11.88;;;;;;;;;;5097787;28;20020;-72
2020/12/11 00:44:47;;;;;;;16.48;13.00;;;;;;;;;;5095879;28;20016;-72
2020/12/11 00:47:13;;;;;;;19.77;12.98;;;;;;;;;;5097384;28;20091;-70
2020/12/11 00:49:39;;;;;;;15.30;12.30;;;;;;;;;;5096368;28;20073;-71
2020/12/11 00:52:05;;;;;;;14.85;11.63;;;;;;;;;;5097406;28;20099;-71
2020/12/11 00:54:31;;;;;;;18.30;12.05;;;;;;;;;;5097832;28;20020;-71
2020/12/11 00:56:57;;;;;;;16.88;12.52;;;;;;;;;;5097597;28;20016;-71
2020/12/11 00:59:23;;;;;;;16.40;12.80;;;;;;;;;;5096826;28;20349;-71
2020/12/11 01:01:50;;;;;;;19.77;13.98;;;;;;;;;;5097479;28;20034;-71
2020/12/11 01:04:16;;;;;;;17.00;12.90;;;;;;;;;;5096081;28;20039;-71
2020/12/11 01:06:42;;;;;;;13.55;11.48;;;;;;;;;;5095792;28;20454;-71
2020/12/11 01:09:08;;;;;;;13.45;10.02;;;;;;;;;;5097003;28;20091;-70
2020/12/11 01:11:35;;;;;;;14.40;11.13;;;;;;;;;;5096207;28;20456;-70
2020/12/11 01:14:01;;;;;;;16.02;11.10;;;;;;;;;;5096610;28;20016;-72
2020/12/11 01:16:27;;;;;;;16.83;12.57;;;;;;;;;;5095549;28;20372;-70
2020/12/11 01:18:53;;;;;;;13.13;10.82;;;;;;;;;;5096821;28;20020;-70
2020/12/11 01:21:19;;;;;;;17.33;12.32;;;;;;;;;;5095341;28;20016;-71
2020/12/11 01:23:45;;;;;;;16.27;13.65;;;;;;;;;;5095787;28;20077;-71
2020/12/11 01:26:12;;;;;;;14.57;12.27;;;;;;;;;;5095709;28;20099;-72
2020/12/11 01:28:38;;;;;;;15.85;13.18;;;;;;;;;;5095234;28;20020;-72
2020/12/11 01:31:04;;;;;;;16.30;13.07;;;;;;;;;;5095855;28;20468;-73
2020/12/11 01:33:30;;;;;;;16.33;12.68;;;;;;;;;;5097203;28;20020;-73
2020/12/11 01:35:56;;;;;;;15.43;12.02;;;;;;;;;;5095583;28;20364;-73
2020/12/11 01:38:22;;;;;;;13.77;10.88;;;;;;;;;;5096429;28;20367;-73
2020/12/11 01:40:49;;;;;;;14.18;11.23;;;;;;;;;;5094536;28;20047;-73
2020/12/11 01:43:19;;;;;;;13.52;11.85;;;;;;;;;;5095673;28;20490;-72
2020/12/11 01:45:45;;;;;;;14.57;12.05;;;;;;;;;;5097245;28;20047;-73
2020/12/11 01:48:11;;;;;;;14.57;11.15;;;;;;;;;;5097203;28;20047;-73
2020/12/11 01:50:37;;;;;;;13.85;11.68;;;;;;;;;;5095946;28;20059;-74
2020/12/11 01:53:04;;;;;;;14.15;11.48;;;;;;;;;;5095287;28;20052;-74
2020/12/11 01:55:30;;;;;;;13.93;11.38;;;;;;;;;;5095107;28;20016;-73
2020/12/11 01:58:17;;;;;;;12.93;10.68;;;;;;;;;;5097218;28;20448;-73
2020/12/11 02:00:43;;;;;;;13.07;10.97;;;;;;;;;;5095187;28;20521;-73
2020/12/11 02:03:11;;;;;;;14.43;10.50;;;;;;;;;;5095167;28;20073;-72
2020/12/11 02:05:37;;;;;;;;;;;;;;;;;;5095725;28;20020;-72
2020/12/11 02:08:03;;;;;;;12.10;9.93;;;;;;;;;;5095368;28;20337;-72
2020/12/11 02:10:29;;;;;;;13.63;11.48;;;;;;;;;;5096059;28;20016;-71
2020/12/11 02:12:55;;;;;;;12.82;10.80;;;;;;;;;;5095008;28;20353;-72
2020/12/11 02:15:22;;;;;;;12.18;10.15;;;;;;;;;;5096138;28;20013;-72
2020/12/11 02:17:48;;;;;;;11.98;9.48;;;;;;;;;;5094421;28;20065;-72
2020/12/11 02:20:14;;;;;;;12.20;9.98;;;;;;;;;;5095593;28;20016;-73
2020/12/11 02:22:44;;;;;;;12.90;10.50;;;;;;;;;;5093845;28;20047;-73
2020/12/11 02:25:11;;;;;;;14.13;10.15;;;;;;;;;;5094648;28;20030;-72
2020/12/11 02:27:38;;;;;;;11.75;9.80;;;;;;;;;;5096016;28;20395;-72
2020/12/11 02:30:05;;;;;;;13.30;10.55;;;;;;;;;;5093896;28;20055;-72
2020/12/11 02:32:31;;;;;;;11.40;9.25;;;;;;;;;;5094490;28;20457;-72
2020/12/11 02:34:57;;;;;;;9.75;8.52;;;;;;;;;;5094897;28;20066;-71
2020/12/11 02:37:23;;;;;;;12.43;9.93;;;;;;;;;;5094226;28;20020;-71
2020/12/11 02:39:49;;;;;;;9.75;8.52;;;;;;;;;;5094404;28;20016;-72
2020/12/11 02:42:16;;;;;;;9.88;8.88;;;;;;;;;;5094690;28;20116;-72
2020/12/11 02:44:42;;;;;;;6.30;5.30;;;;;;;;;;5094544;28;20020;-72
2020/12/11 02:47:08;;;;;;;7.20;5.53;;;;;;;;;;5094622;28;20043;-70
2020/12/11 02:49:34;;;;;;;7.63;6.55;;;;;;;;;;5093927;28;20111;-72
2020/12/11 02:52:00;;;;;;;10.63;8.10;;;;;;;;;;5093859;28;20031;-72
2020/12/11 02:54:26;;;;;;;10.95;8.90;;;;;;;;;;5095405;28;20024;-71
2020/12/11 02:56:52;;;;;;;11.88;9.07;;;;;;;;;;5095251;28;20449;-73
2020/12/11 02:59:19;;;;;;;10.00;8.68;;;;;;;;;;5095294;28;20107;-70
2020/12/11 03:01:45;;;;;;;10.60;9.05;;;;;;;;;;5093901;28;20469;-72
2020/12/11 03:04:11;;;;;;;13.07;10.18;;;;;;;;;;5093820;28;20020;-72
2020/12/11 03:06:37;;;;;;;11.65;9.27;;;;;;;;;;5094591;28;20384;-72
2020/12/11 03:09:03;;;;;;;10.23;9.10;;;;;;;;;;5095748;28;20012;-70
2020/12/11 03:11:29;;;;;;;12.93;10.50;;;;;;;;;;5093574;28;20062;-71
2020/12/11 03:13:56;;;;;;;11.75;9.68;;;;;;;;;;5094279;28;20047;-70
2020/12/11 03:16:22;;;;;;;12.30;10.55;;;;;;;;;;5093552;28;20027;-70
2020/12/11 03:18:49;;;;;;;11.95;10.50;;;;;;;;;;5093234;28;20023;-70
2020/12/11 03:21:16;;;;;;;9.85;8.63;;;;;;;;;;5094581;28;20030;-72
2020/12/11 03:23:42;;;;;;;10.68;8.55;;;;;;;;;;5095057;28;20484;-69
2020/12/11 03:26:08;;;;;;;13.50;9.27;;;;;;;;;;5093169;28;20039;-72
2020/12/11 03:28:34;;;;;;;12.07;9.02;;;;;;;;;;5093073;28;20360;-70
2020/12/11 03:31:01;;;;;;;12.52;9.90;;;;;;;;;;5093710;28;20472;-72
2020/12/11 03:33:27;;;;;;;11.85;9.50;;;;;;;;;;5094061;28;20016;-72
2020/12/11 03:35:54;;;;;;;13.63;10.60;;;;;;;;;;5095181;28;20051;-72
2020/12/11 03:38:20;;;;;;;12.63;11.02;;;;;;;;;;5094351;28;20049;-74
2020/12/11 03:40:47;;;;;;;16.00;12.45;;;;;;;;;;5093051;28;20099;-73
2020/12/11 03:43:13;;;;;;;15.82;10.57;;;;;;;;;;5093845;28;20453;-73
2020/12/11 03:45:39;;;;;;;14.27;11.40;;;;;;;;;;5093040;28;20164;-72
2020/12/11 03:48:05;;;;;;;14.30;11.68;;;;;;;;;;5093063;28;20016;-71
2020/12/11 03:50:31;;;;;;;13.85;10.35;;;;;;;;;;5093026;28;20027;-71
2020/12/11 03:52:57;;;;;;;16.48;11.63;;;;;;;;;;5093983;28;20028;-71
2020/12/11 03:55:23;;;;;;;21.02;13.65;;;;;;;;;;5093851;28;20091;-72
2020/12/11 03:57:49;;;;;;;18.45;13.02;;;;;;;;;;5092764;28;20157;-72
2020/12/11 04:00:16;;;;;;;17.98;13.85;;;;;;;;;;5092843;28;20018;-71
2020/12/11 04:02:42;;;;;;;17.60;13.32;;;;;;;;;;5093079;28;20035;-74
2020/12/11 04:05:08;;;;;;;15.15;11.23;;;;;;;;;;5092725;28;20484;-72
2020/12/11 04:07:34;;;;;;;14.18;10.07;;;;;;;;;;5092217;28;20027;-72
2020/12/11 04:10:00;;;;;;;16.75;11.65;;;;;;;;;;5094047;28;20034;-71
2020/12/11 04:12:26;;;;;;;14.82;11.35;;;;;;;;;;5094196;28;20033;-72
2020/12/11 04:14:53;;;;;;;16.70;12.73;;;;;;;;;;5091914;28;20020;-70
2020/12/11 04:17:19;;;;;;;17.40;12.63;;;;;;;;;;5092384;28;20488;-72
2020/12/11 04:19:45;;;;;;;17.95;13.85;;;;;;;;;;5092592;28;20031;-70
2020/12/11 04:22:11;;;;;;;19.80;14.50;;;;;;;;;;5093603;28;20142;-74
2020/12/11 04:24:37;;;;;;;23.35;16.52;;;;;;;;;;5094007;28;20353;-77
2020/12/11 04:27:03;;;;;;;22.08;15.35;;;;;;;;;;5094647;28;20069;-72
2020/12/11 04:29:29;;;;;;;24.23;16.27;;;;;;;;;;5093471;28;20019;-73
2020/12/11 04:31:56;;;;;;;23.92;17.23;;;;;;;;;;5092435;28;20028;-74
2020/12/11 04:34:23;;;;;;;25.52;17.52;;;;;;;;;;5092372;28;20020;-72
2020/12/11 04:36:50;;;;;;;26.85;16.67;;;;;;;;;;5091902;28;20115;-73
2020/12/11 04:39:16;;;;;;;25.13;17.23;;;;;;;;;;5092519;28;20020;-74
2020/12/11 04:41:44;;;;;;;26.63;16.92;;;;;;;;;;5092162;28;20024;-74
2020/12/11 04:44:11;;;;;;;26.92;17.13;;;;;;;;;;5092919;28;20008;-72
2020/12/11 04:46:37;;;;;;;23.38;16.55;;;;;;;;;;5092379;28;20016;-72
2020/12/11 04:49:03;;;;;;;24.65;16.02;;;;;;;;;;5092109;28;20020;-71
2020/12/11 04:51:30;;;;;;;26.75;17.02;;;;;;;;;;5092063;28;20350;-72
2020/12/11 04:53:57;;;;;;;30.10;19.08;;;;;;;;;;5092915;28;20028;-71
2020/12/11 04:56:25;;;;;;;27.40;18.15;;;;;;;;;;5092377;28;20020;-71
2020/12/11 04:58:52;;;;;;;27.45;18.63;;;;;;;;;;5092002;28;20018;-71
2020/12/11 05:01:29;;;;;;;30.88;19.27;;;;;;;;;;5092051;28;20539;-71
2020/12/11 05:03:55;;;;;;;29.27;19.30;;;;;;;;;;5091755;28;20012;-74
2020/12/11 05:06:22;;;;;;;27.55;18.92;;;;;;;;;;5092261;28;20073;-75
2020/12/11 05:08:48;;;;;;;26.42;17.88;;;;;;;;;;5090357;28;20020;-73
2020/12/11 05:11:27;;;;;;;31.40;19.33;;;;;;;;;;5089977;28;20464;-74
2020/12/11 05:13:53;;;;;;;28.73;17.60;;;;;;;;;;5091661;28;20087;-72
2020/12/11 05:16:21;;;;;;;26.67;18.13;;;;;;;;;;5094353;28;20024;-73
2020/12/11 05:18:48;;;;;;;26.95;17.20;;;;;;;;;;5093891;28;20333;-74
2020/12/11 05:21:26;;;;;;;26.08;17.33;;;;;;;;;;5096200;28;20039;-75
2020/12/11 05:24:00;;;;;;;25.70;17.85;;;;;;;;;;5095581;28;20024;-73
2020/12/11 05:26:26;;;;;;;26.50;17.35;;;;;;;;;;5095475;28;20043;-75
2020/12/11 05:28:53;;;;;;;27.98;18.45;;;;;;;;;;5097200;28;20028;-73
2020/12/11 05:31:19;;;;;;;25.92;17.42;;;;;;;;;;5095648;28;20380;-72
2020/12/11 05:34:05;;;;;;;23.85;16.05;;;;;;;;;;5095277;28;20046;-74
2020/12/11 05:36:52;;;;;;;22.60;15.38;;;;;;;;;;5095545;28;20452;-72
2020/12/11 05:39:31;;;;;;;28.03;17.07;;;;;;;;;;5096346;28;20476;-72
2020/12/11 05:41:58;;;;;;;27.38;17.25;;;;;;;;;;5095562;28;20101;-74
2020/12/11 05:44:27;;;;;;;29.08;19.05;;;;;;;;;;5095393;28;20016;-74
2020/12/11 05:46:54;;;;;;;27.65;17.70;;;;;;;;;;5096609;28;20016;-73
2020/12/11 05:49:24;;;;;;;29.05;18.42;;;;;;;;;;5095238;28;20024;-73
2020/12/11 05:51:55;;;;;;;29.77;20.52;;;;;;;;;;5095131;28;20027;-73
2020/12/11 05:54:22;;;;;;;29.25;18.38;;;;;;;;;;5095156;28;20105;-73
2020/12/11 05:56:49;;;;;;;28.92;18.77;;;;;;;;;;5095908;28;20043;-73
2020/12/11 05:59:16;;;;;;;26.75;16.85;;;;;;;;;;5095096;28;20020;-72
2020/12/11 06:01:42;;;;;;;25.85;17.95;;;;;;;;;;5094573;28;20080;-76
2020/12/11 06:04:11;;;;;;;32.92;18.98;;;;;;;;;;5094716;28;20025;-72
2020/12/11 06:06:37;;;;;;;30.35;19.67;;;;;;;;;;5094619;28;20016;-72
2020/12/11 06:09:03;;;;;;;34.08;19.23;;;;;;;;;;5096454;28;20027;-72
2020/12/11 06:11:34;;;;;;;31.23;18.55;;;;;;;;;;5094877;28;20035;-72
2020/12/11 06:14:02;;;;;;;33.33;21.52;;;;;;;;;;5094668;28;20338;-73
2020/12/11 06:16:29;;;;;;;48.10;25.75;;;;;;;;;;5094758;28;20460;-73
2020/12/11 06:19:00;;;;;;;36.85;22.88;;;;;;;;;;5095733;28;20091;-73
2020/12/11 06:21:27;;;;;;;44.33;24.77;;;;;;;;;;5093895;28;20044;-72
2020/12/11 06:23:53;;;;;;;41.07;23.73;;;;;;;;;;5095790;28;20018;-73
2020/12/11 06:26:20;;;;;;;38.42;23.90;;;;;;;;;;5094238;28;20023;-73
2020/12/11 06:28:50;;;;;;;38.93;25.67;;;;;;;;;;5094251;28;20051;-72
2020/12/11 06:31:17;;;;;;;34.03;22.52;;;;;;;;;;5094396;28;20034;-73
2020/12/11 06:33:43;;;;;;;;;;;;;;;;;;5094836;28;20020;-73
2020/12/11 06:36:10;;;;;;;34.03;20.08;;;;;;;;;;5095329;28;19991;-73
2020/12/11 06:38:39;;;;;;;38.72;23.70;;;;;;;;;;5095583;28;20031;-72
2020/12/11 06:41:05;;;;;;;42.80;24.85;;;;;;;;;;5094040;28;20052;-72
2020/12/11 06:43:38;;;;;;;55.20;31.65;;;;;;;;;;5093917;28;20073;-72
2020/12/11 06:46:20;;;;;;;52.63;28.20;;;;;;;;;;5096266;28;20020;-74
2020/12/11 06:49:06;;;;;;;53.80;30.55;;;;;;;;;;5093799;28;20020;-72
2020/12/11 06:51:32;;;;;;;57.58;31.95;;;;;;;;;;5095031;28;20028;-72
2020/12/11 06:53:59;;;;;;;52.53;27.93;;;;;;;;;;5095605;28;20034;-75
2020/12/11 06:56:44;;;;;;;49.65;28.00;;;;;;;;;;5094627;28;20248;-72
2020/12/11 06:59:22;;;;;;;48.97;27.83;;;;;;;;;;5094420;28;20031;-75
2020/12/11 07:01:48;;;;;;;57.47;30.13;;;;;;;;;;5094580;28;20031;-74
2020/12/11 07:04:14;;;;;;;54.60;32.20;;;;;;;;;;5093529;28;20019;-74
2020/12/11 07:06:45;;;;;;;56.67;31.73;;;;;;;;;;5093449;28;20020;-72
2020/12/11 07:09:12;;;;;;;54.50;31.23;;;;;;;;;;5095156;28;20360;-73
2020/12/11 07:11:38;;;;;;;58.45;35.38;;;;;;;;;;5093336;28;20028;-74
2020/12/11 07:14:04;;;;;;;88.45;47.55;;;;;;;;;;5093707;28;20465;-73
2020/12/11 07:16:30;;;;;;;73.20;38.90;;;;;;;;;;5095069;28;20020;-72
2020/12/11 07:18:56;;;;;;;71.00;36.50;;;;;;;;;;5093278;28;20016;-70
2020/12/11 07:21:29;;;;;;;78.30;42.55;;;;;;;;;;5094734;28;20031;-69
2020/12/11 07:23:55;;;;;;;63.53;34.42;;;;;;;;;;5094415;28;20031;-72
2020/12/11 07:26:21;;;;;;;63.58;34.03;;;;;;;;;;5094333;28;20446;-74
2020/12/11 07:28:48;;;;;;;60.97;33.65;;;;;;;;;;5094432;28;20099;-75
2020/12/11 07:31:14;;;;;;;70.88;35.75;;;;;;;;;;5094825;28;20150;-72
2020/12/11 07:33:41;;;;;;;61.88;34.35;;;;;;;;;;5094304;28;20023;-73
2020/12/11 07:36:07;;;;;;;96.03;46.47;;;;;;;;;;5094073;28;20043;-73
2020/12/11 07:38:33;;;;;;;77.15;38.85;;;;;;;;;;5094042;28;20012;-73
2020/12/11 07:41:03;;;;;;;84.38;49.55;;;;;;;;;;5094151;28;20066;-75
2020/12/11 07:43:29;;;;;;;67.55;34.97;;;;;;;;;;5092884;28;20019;-72
2020/12/11 07:45:55;;;;;;;66.72;36.22;;;;;;;;;;5094240;28;20020;-71
2020/12/11 07:48:21;;;;;;;70.38;36.60;;;;;;;;;;5094471;28;20040;-76
2020/12/11 07:50:47;;;;;;;69.90;36.35;;;;;;;;;;5093078;28;20424;-75
2020/12/11 07:53:14;;;;;;;67.93;35.80;;;;;;;;;;5092592;28;20480;-72
2020/12/11 07:55:40;;;;;;;82.00;46.27;;;;;;;;;;5092823;28;20042;-72
2020/12/11 07:58:06;;;;;;;206.98;131.93;;;;;;;;;;5094443;28;20024;-71
2020/12/11 08:00:35;;;;;;;134.93;75.95;;;;;;;;;;5094159;28;20020;-72
2020/12/11 08:03:05;;;;;;;136.48;74.97;;;;;;;;;;5092537;28;20020;-71
2020/12/11 08:05:32;;;;;;;118.10;67.20;;;;;;;;;;5092879;28;20048;-71
2020/12/11 08:07:59;;;;;;;105.22;57.88;;;;;;;;;;5094361;28;20023;-72
2020/12/11 08:10:33;;;;;;;95.97;47.20;;;;;;;;;;5093766;28;20016;-69
2020/12/11 08:13:07;;;;;;;96.97;50.53;;;;;;;;;;5094039;28;20166;-71
2020/12/11 08:15:35;;;;;;;98.55;48.25;;;;;;;;;;5092899;28;20024;-71
2020/12/11 08:18:34;;;;;;;91.72;48.40;;;;;;;;;;5109164;28;20070;-71
2020/12/11 08:21:01;;;;;;;201.85;108.32;;;;;;;;;;5059564;28;20032;-74
2020/12/11 08:23:47;;;;;;;126.93;66.20;;;;;;;;;;5093091;28;20044;-71
2020/12/11 08:26:14;;;;;;;81.82;45.13;;;;;;;;;;5092630;28;20105;-72
2020/12/11 08:28:41;;;;;;;84.75;42.70;;;;;;;;;;5093188;28;20020;-66
2020/12/11 08:31:27;;;;;;;85.15;41.10;;;;;;;;;;5093463;28;20043;-71
2020/12/11 08:34:01;;;;;;;81.03;42.72;;;;;;;;;;5092226;28;20027;-71
2020/12/11 08:36:28;;;;;;;98.47;59.72;;;;;;;;;;5092267;28;20025;-72
2020/12/11 08:39:17;;;;;;;94.18;48.40;;;;;;;;;;5092163;28;20016;-73
2020/12/11 08:41:57;;;;;;;88.40;45.15;;;;;;;;;;5066158;28;20024;-72
2020/12/11 08:47:30;;;;;;;82.65;40.42;;;;;;;;;;5073536;28;20373;-72
2020/12/11 08:52:28;;;;;;;77.05;39.25;;;;;;;;;;5087868;28;20066;-73
2020/12/11 08:54:55;;;;;;;82.22;40.15;;;;;;;;;;5098023;28;20356;-73
2020/12/11 08:57:21;;;;;;;83.80;39.40;;;;;;;;;;5096264;28;20016;-72
2020/12/11 08:59:47;;;;;;;77.38;39.95;;;;;;;;;;5096029;28;20024;-73
2020/12/11 09:02:13;;;;;;;79.10;39.38;;;;;;;;;;5096039;28;20028;-73
2020/12/11 09:04:40;;;;;;;74.90;35.33;;;;;;;;;;5095953;28;20020;-72
2020/12/11 09:07:06;;;;;;;76.82;37.40;;;;;;;;;;5096840;28;20020;-73
2020/12/11 09:09:32;;;;;;;88.30;39.72;;;;;;;;;;5095168;28;20281;-72
2020/12/11 09:11:58;;;;;;;79.78;37.17;;;;;;;;;;5095543;28;20035;-73
2020/12/11 09:14:24;;;;;;;240.77;114.60;;;;;;;;;;5095521;28;20028;-71
2020/12/11 09:16:50;;;;;;;100.18;48.42;;;;;;;;;;5097051;28;20061;-70
2020/12/11 09:19:17;;;;;;;69.55;33.17;;;;;;;;;;5096629;28;20095;-71
2020/12/11 09:21:43;;;;;;;68.20;33.63;;;;;;;;;;5097387;28;20040;-71
2020/12/11 09:24:10;;;;;;;74.50;36.03;;;;;;;;;;5095913;28;20024;-71
2020/12/11 09:26:36;;;;;;;66.25;32.25;;;;;;;;;;5094798;28;20048;-70
2020/12/11 09:29:14;;;;;;;68.75;38.33;;;;;;;;;;5095144;28;20232;-70
2020/12/11 09:31:44;;;;;;;64.78;33.10;;;;;;;;;;5109636;28;20054;-68
2020/12/11 09:34:10;;;;;;;53.17;27.60;;;;;;;;;;5095238;28;20448;-72
2020/12/11 09:36:36;;;;;;;64.70;33.17;;;;;;;;;;5095370;28;20049;-75
2020/12/11 09:39:02;;;;;;;59.08;31.88;;;;;;;;;;5095370;28;20070;-74
2020/12/11 09:41:30;;;;;;;61.08;32.15;;;;;;;;;;5094694;28;20078;-72
2020/12/11 09:44:24;;;;;;;68.88;33.55;;;;;;;;;;5096400;28;20023;-77
2020/12/11 09:52:27;;;;;;;57.35;27.17;;;;;;;;;;5096417;28;20039;-73
2020/12/11 09:54:53;;;;;;;66.13;34.97;;;;;;;;;;5094889;28;20023;-73
2020/12/11 09:57:19;;;;;;;62.70;31.90;;;;;;;;;;5095129;28;20031;-73
2020/12/11 09:59:55;;;;;;;55.50;27.63;;;;;;;;;;5095093;28;20019;-72
2020/12/11 10:04:47;;;;;;;60.00;30.65;;;;;;;;;;5096264;28;20142;-74
2020/12/11 10:07:14;;;;;;;68.70;34.38;;;;;;;;;;5096147;28;20023;-76
2020/12/11 10:09:42;;;;;;;69.53;35.35;;;;;;;;;;5095679;28;20017;-75
2020/12/11 10:12:08;;;;;;;54.63;29.98;;;;;;;;;;5094718;28;20056;-75
2020/12/11 10:14:38;;;;;;;70.15;31.63;;;;;;;;;;5096229;28;20441;-72
2020/12/11 10:17:04;;;;;;;70.38;33.45;;;;;;;;;;5094347;28;20081;-73
2020/12/11 10:19:30;;;;;;;82.18;38.60;;;;;;;;;;5094937;28;20058;-72
2020/12/11 10:21:57;;;;;;;82.72;35.08;;;;;;;;;;5094111;28;20400;-73
2020/12/11 10:24:23;;;;;;;62.25;28.55;;;;;;;;;;5094191;28;20457;-75
2020/12/11 10:26:50;;;;;;;71.40;34.13;;;;;;;;;;5094448;28;20043;-74
2020/12/11 10:29:16;;;;;;;67.68;34.03;;;;;;;;;;5094153;28;20030;-72
2020/12/11 10:31:44;;;;;;;83.55;38.42;;;;;;;;;;5095673;28;20077;-73
2020/12/11 10:34:10;;;;;;;95.82;49.30;;;;;;;;;;5094640;28;20093;-69
2020/12/11 10:36:37;;;;;;;89.95;46.58;;;;;;;;;;5095231;28;20019;-76
2020/12/11 10:39:03;;;;;;;63.90;30.45;;;;;;;;;;5093954;28;20118;-73
2020/12/11 10:41:29;;;;;;;60.05;29.42;;;;;;;;;;5094387;28;20370;-72
2020/12/11 10:43:55;;;;;;;58.72;28.95;;;;;;;;;;5094848;28;20015;-75
2020/12/11 10:46:22;;;;;;;196.63;88.15;;;;;;;;;;5095612;28;20055;-78
2020/12/11 10:48:48;;;;;;;143.48;65.22;;;;;;;;;;5094281;28;20357;-76
2020/12/11 10:51:15;;;;;;;210.63;94.00;;;;;;;;;;5093841;28;20028;-75
2020/12/11 10:53:42;;;;;;;150.85;63.70;;;;;;;;;;5086852;28;20021;-77
2020/12/11 10:56:09;;;;;;;150.88;67.10;;;;;;;;;;5073783;28;20078;-74
2020/12/11 10:58:35;;;;;;;128.23;54.47;;;;;;;;;;5072932;28;20034;-74
2020/12/11 11:01:05;;;;;;;86.50;38.15;;;;;;;;;;5074961;28;20075;-73
2020/12/11 11:03:32;;;;;;;68.93;34.10;;;;;;;;;;5082681;28;20023;-72
2020/12/11 11:06:23;;;;;;;87.03;39.55;;;;;;;;;;5093021;28;20031;-71
2020/12/11 11:11:20;;;;;;;75.15;32.28;;;;;;;;;;5094684;28;20544;-74
2020/12/11 11:16:31;;;;;;;62.97;29.00;;;;;;;;;;5094518;28;20365;-71
2020/12/11 11:19:04;;;;;;;74.07;31.92;;;;;;;;;;5094536;28;20073;-72
2020/12/11 11:21:53;;;;;;;104.68;48.60;;;;;;;;;;5093686;28;20048;-72
2020/12/11 11:27:12;;;;;;;94.82;46.70;;;;;;;;;;5064317;28;20017;-73
2020/12/11 11:29:38;;;;;;;100.07;49.75;;;;;;;;;;5093527;28;20373;-76
2020/12/11 11:32:04;;;;;;;79.32;38.08;;;;;;;;;;5093307;28;20027;-74
2020/12/11 11:34:30;;;;;;;62.13;32.58;;;;;;;;;;5089807;28;20020;-73
2020/12/11 11:36:56;;;;;;;67.63;34.38;;;;;;;;;;5084839;28;20471;-72
2020/12/11 11:39:23;;;;;;;76.28;37.65;;;;;;;;;;5092107;28;20464;-71
2020/12/11 11:41:49;;;;;;;73.88;33.38;;;;;;;;;;5094811;28;20460;-73
2020/12/11 11:46:42;;;;;;;78.88;44.67;;;;;;;;;;5095473;28;20082;-75
2020/12/11 11:49:10;;;;;;;71.28;39.40;;;;;;;;;;5094589;28;20483;-71
2020/12/11 11:51:44;;;;;;;84.13;45.40;;;;;;;;;;5094573;28;20117;-71
2020/12/11 11:54:10;;;;;;;79.45;42.45;;;;;;;;;;5093697;28;20024;-73
2020/12/11 11:56:36;;;;;;;57.30;29.70;;;;;;;;;;5093554;28;20012;-71
2020/12/11 11:59:02;;;;;;;61.63;31.23;;;;;;;;;;5092906;28;20376;-73
2020/12/11 12:01:29;;;;;;;62.50;33.17;;;;;;;;;;5091877;28;20421;-74
2020/12/11 12:03:55;;;;;;;62.60;30.77;;;;;;;;;;5093733;28;20095;-71
2020/12/11 12:06:22;;;;;;;52.53;27.65;;;;;;;;;;5092569;28;20023;-71
2020/12/11 12:08:48;;;;;;;58.67;30.30;;;;;;;;;;5092853;28;20020;-77
2020/12/11 12:11:14;;;;;;;51.47;27.70;;;;;;;;;;5092907;28;20471;-70
2020/12/11 12:13:40;;;;;;;59.40;31.27;;;;;;;;;;5094248;28;20092;-71
2020/12/11 12:16:07;;;;;;;68.07;37.78;;;;;;;;;;5093607;28;20069;-71
2020/12/11 12:18:34;;;;;;;58.92;32.47;;;;;;;;;;5092503;28;20039;-71
2020/12/11 12:21:14;;;;;;;51.83;25.80;;;;;;;;;;5091379;28;20024;-76
2020/12/11 12:29:10;;;;;;;73.45;38.58;;;;;;;;;;5097802;28;20031;-72
2020/12/11 12:31:42;;;;;;;82.10;44.22;;;;;;;;;;5096699;28;20028;-71
2020/12/11 12:37:30;;;;;;;54.05;29.42;;;;;;;;;;5097463;28;20028;-72
2020/12/11 12:44:50;;;;;;;68.50;39.60;;;;;;;;;;5077085;28;20025;-70
2020/12/11 12:47:16;;;;;;;44.13;26.05;;;;;;;;;;5095908;28;20028;-72
2020/12/11 12:49:42;;;;;;;46.40;27.92;;;;;;;;;;5095976;28;20027;-71
2020/12/11 12:52:08;;;;;;;35.88;20.33;;;;;;;;;;5097624;28;20027;-71
2020/12/11 12:54:34;;;;;;;47.05;24.23;;;;;;;;;;5095890;28;20024;-71
2020/12/11 12:57:07;;;;;;;47.55;25.52;;;;;;;;;;5096999;28;20069;-69
2020/12/11 13:02:31;;;;;;;49.05;28.23;;;;;;;;;;5097494;28;20084;-71
2020/12/11 13:05:07;;;;;;;51.95;29.13;;;;;;;;;;5095763;28;20016;-72
2020/12/11 13:07:33;;;;;;;55.05;31.05;;;;;;;;;;5097299;28;20016;-68
2020/12/11 13:09:59;;;;;;;94.53;54.38;;;;;;;;;;5096991;28;20027;-70
2020/12/11 13:12:26;;;;;;;136.15;68.22;;;;;;;;;;5095490;28;20034;-70
2020/12/11 13:14:52;;;;;;;92.68;47.50;;;;;;;;;;5097242;28;20019;-72
2020/12/11 13:17:18;;;;;;;127.15;62.60;;;;;;;;;;5082309;28;20013;-71
2020/12/11 13:19:44;;;;;;;73.78;37.78;;;;;;;;;;5075529;28;20021;-72
2020/12/11 13:27:43;;;;;;;57.42;34.80;;;;;;;;;;5097053;28;20105;-70
2020/12/11 13:30:09;;;;;;;45.33;27.50;;;;;;;;;;5096906;28;20460;-72
2020/12/11 13:32:35;;;;;;;44.42;26.58;;;;;;;;;;5096137;28;20081;-72
2020/12/11 13:35:02;;;;;;;44.92;26.50;;;;;;;;;;5096394;28;20019;-71
2020/12/11 13:37:31;;;;;;;51.65;30.40;;;;;;;;;;5088741;28;20024;-72
2020/12/11 13:40:01;;;;;;;72.13;38.95;;;;;;;;;;5090356;28;20023;-73
2020/12/11 13:42:29;;;;;;;66.60;38.25;;;;;;;;;;5095299;28;20024;-71
2020/12/11 13:44:55;;;;;;;65.47;36.83;;;;;;;;;;5093521;28;20038;-69
2020/12/11 13:47:21;;;;;;;62.35;35.72;;;;;;;;;;5093585;28;20060;-70
2020/12/11 13:49:47;;;;;;;51.35;30.33;;;;;;;;;;5095221;28;20020;-69
2020/12/11 13:52:14;;;;;;;55.78;34.55;;;;;;;;;;5093789;28;20032;-70
2020/12/11 13:54:40;;;;;;;55.45;30.83;;;;;;;;;;5094774;28;20085;-72
2020/12/11 13:57:06;;;;;;;44.47;25.33;;;;;;;;;;5096371;28;20016;-69
2020/12/11 13:59:32;;;;;;;45.65;27.13;;;;;;;;;;5095800;28;20020;-72
2020/12/11 14:01:59;;;;;;;50.20;28.27;;;;;;;;;;5096020;28;20020;-71
2020/12/11 14:04:25;;;;;;;50.45;27.42;;;;;;;;;;5094902;28;20469;-71
2020/12/11 14:06:52;;;;;;;67.03;36.75;;;;;;;;;;5093850;28;20016;-73
2020/12/11 14:09:18;;;;;;;73.85;39.72;;;;;;;;;;5094446;28;20016;-71
2020/12/11 14:11:45;;;;;;;64.60;31.55;;;;;;;;;;5096103;28;20028;-70
2020/12/11 14:14:11;;;;;;;58.03;33.45;;;;;;;;;;5094557;28;20020;-73
2020/12/11 14:16:46;;;;;;;53.53;27.17;;;;;;;;;;5094693;28;20074;-74
2020/12/11 14:24:24;;;;;;;40.05;22.60;;;;;;;;;;5095796;28;20034;-73
2020/12/11 14:26:51;;;;;;;36.38;22.55;;;;;;;;;;5095454;28;20074;-74
2020/12/11 14:29:18;;;;;;;36.38;22.92;;;;;;;;;;5094109;28;20038;-71
2020/12/11 14:31:44;;;;;;;43.88;22.33;;;;;;;;;;5094341;28;20478;-71
2020/12/11 14:34:10;;;;;;;38.80;21.42;;;;;;;;;;5094253;28;20069;-72
2020/12/11 14:36:36;;;;;;;48.85;26.52;;;;;;;;;;5094220;28;20043;-71
2020/12/11 14:39:11;;;;;;;53.28;27.60;;;;;;;;;;5094321;28;20024;-71
2020/12/11 14:41:37;;;;;;;50.08;25.20;;;;;;;;;;5095008;28;20022;-71
2020/12/11 14:44:04;;;;;;;44.23;24.17;;;;;;;;;;5094164;28;20076;-72
2020/12/11 14:46:30;;;;;;;41.33;23.60;;;;;;;;;;5089460;28;20256;-71
2020/12/11 14:48:57;;;;;;;47.45;25.05;;;;;;;;;;5084430;28;20034;-71
2020/12/11 14:51:30;;;;;;;55.90;29.42;;;;;;;;;;5094321;28;20032;-72
2020/12/11 14:53:57;;;;;;;57.53;30.30;;;;;;;;;;5095526;28;20023;-73
2020/12/11 14:56:23;;;;;;;73.88;34.97;;;;;;;;;;5087814;28;20031;-72
2020/12/11 14:58:49;;;;;;;84.03;35.65;;;;;;;;;;5074839;28;20139;-71
2020/12/11 15:01:16;;;;;;;98.82;46.08;;;;;;;;;;5074775;28;20028;-73
2020/12/11 15:03:42;;;;;;;68.07;32.28;;;;;;;;;;5073349;28;20364;-70
2020/12/11 15:06:09;;;;;;;59.90;30.27;;;;;;;;;;5073897;28;20021;-71
2020/12/11 15:08:35;;;;;;;53.63;22.98;;;;;;;;;;5073194;28;20020;-72
2020/12/11 15:11:01;;;;;;;78.53;35.88;;;;;;;;;;5074299;28;20017;-69
2020/12/11 15:13:27;;;;;;;68.45;34.92;;;;;;;;;;5074234;28;20035;-73